Time;durP1;ratioP1;P1;durP2;ratioP2;P2;SDS_P1;SDS_P2;PMS_P1;PMS_P2;Temp;Humidity;BMP_temperature;BMP_pressure;BME280_temperature;BME280_humidity;BME280_pressure;Samples;Min_cycle;Max_cycle;Signal;HPM_P1;HPM_P2
2021/05/06 00:32:35;;;;;;;1.77;1.20;;;;;;;7.10;67.03;99608.41;10248159;28;20477;-57
2021/05/06 00:37:45;;;;;;;3.05;1.30;;;;;;;7.14;67.10;99609.88;10259320;28;20058;-58
2021/05/06 01:08:57;;;;;;;2.17;1.70;;;;;;;7.11;67.67;99610.09;10239191;28;20051;-59
2021/05/06 01:14:08;;;;;;;2.05;1.70;;;;;;;7.14;67.56;99615.97;10249600;28;20576;-57
2021/05/06 01:19:09;;;;;;;1.55;1.45;;;;;;;7.22;67.10;99608.31;10252523;28;20128;-60
2021/05/06 01:24:10;;;;;;;3.65;1.77;;;;;;;7.35;66.18;99612.66;10235661;28;20539;-59
2021/05/06 01:29:17;;;;;;;1.58;1.40;;;;;;;7.31;67.02;99612.06;10238419;28;20739;-59
2021/05/06 01:34:22;;;;;;;2.55;1.80;;;;;;;7.34;68.11;99609.19;10244914;28;20062;-59
2021/05/06 02:00:20;;;;;;;2.08;1.55;;;;;;;7.39;68.60;99585.81;10252600;28;20115;-58
2021/05/06 02:05:21;;;;;;;2.75;1.52;;;;;;;7.46;68.25;99572.09;10253888;28;20055;-58
2021/05/06 02:10:25;;;;;;;3.45;1.75;;;;;;;7.48;68.20;99586.09;10247246;28;20455;-58
2021/05/06 02:15:32;;;;;;;2.15;1.58;;;;;;;7.37;67.64;99578.94;10267883;28;20124;-59
2021/05/06 02:20:32;;;;;;;3.30;2.15;;;;;;;7.37;67.44;99579.81;10251871;28;20070;-58
2021/05/06 02:25:34;;;;;;;3.03;1.77;;;;;;;7.44;67.51;99581.00;10257545;28;20054;-58
2021/05/06 02:30:35;;;;;;;3.13;1.80;;;;;;;7.48;67.06;99573.69;10254430;28;20050;-59
2021/05/06 02:35:38;;;;;;;1.48;1.10;;;;;;;7.54;66.70;99564.41;10247975;28;20160;-59
2021/05/06 02:40:39;;;;;;;3.75;1.48;;;;;;;7.37;66.74;99548.03;10245200;28;20693;-60
2021/05/06 02:45:40;;;;;;;1.58;1.33;;;;;;;7.56;66.70;99551.88;10247662;28;20714;-59
2021/05/06 02:50:46;;;;;;;2.50;1.95;;;;;;;7.61;66.64;99555.00;10242747;28;20074;-58
2021/05/06 03:06:17;;;;;;;2.58;1.40;;;;;;;7.21;66.96;99537.78;10250619;28;20050;-60
2021/05/06 03:11:38;;;;;;;2.70;1.52;;;;;;;7.23;67.42;99527.09;10245209;28;20105;-59
2021/05/06 03:27:01;;;;;;;1.45;1.20;;;;;;;6.98;67.82;99525.50;10250830;28;20062;-61
2021/05/06 03:34:38;;;;;;;2.40;1.80;;;;;;;7.04;67.69;99525.03;10252237;28;20087;-59
2021/05/06 05:12:23;;;;;;;3.35;2.50;;;;;;;7.41;65.99;99524.81;10280918;28;20043;-55
2021/05/06 05:27:58;;;;;;;3.00;2.15;;;;;;;7.65;64.73;99522.00;10278451;28;20480;-56
2021/05/06 05:32:59;;;;;;;4.28;2.38;;;;;;;7.75;65.80;99530.91;10284690;28;20651;-54
2021/05/06 05:38:33;;;;;;;3.78;3.15;;;;;;;7.83;65.19;99517.03;10286360;28;20078;-53
2021/05/06 05:59:01;;;;;;;4.45;3.45;;;;;;;7.75;64.63;99509.72;10283801;28;20447;-53
2021/05/06 06:04:03;;;;;;;4.53;2.65;;;;;;;7.76;65.08;99511.41;10283555;28;20054;-55
2021/05/06 06:09:04;;;;;;;3.45;2.70;;;;;;;7.93;64.59;99527.75;10286321;28;20050;-55
2021/05/06 06:14:07;;;;;;;3.35;2.40;;;;;;;8.13;64.00;99529.59;10281547;28;20175;-54
2021/05/06 06:19:08;;;;;;;4.40;2.25;;;;;;;8.22;63.33;99532.47;10273162;28;20174;-54
2021/05/06 06:24:10;;;;;;;5.15;2.75;;;;;;;8.15;63.56;99524.16;10289938;28;20104;-53
2021/05/06 06:29:14;;;;;;;3.60;2.45;;;;;;;8.33;63.60;99532.41;10288093;28;20050;-53
2021/05/06 06:34:15;;;;;;;3.15;2.38;;;;;;;8.24;63.58;99526.09;10279022;28;20055;-55
2021/05/06 06:39:16;;;;;;;5.00;2.22;;;;;;;8.29;63.26;99533.66;10278526;28;20061;-54
2021/05/06 06:44:20;;;;;;;4.72;2.92;;;;;;;8.39;63.80;99533.72;10297660;28;20050;-54
2021/05/06 06:49:21;;;;;;;3.78;2.83;;;;;;;8.48;63.20;99533.00;10287777;28;20065;-54
2021/05/06 06:54:24;;;;;;;4.43;2.80;;;;;;;8.51;62.87;99526.59;10286374;28;20093;-54
2021/05/06 06:59:27;;;;;;;5.25;3.20;;;;;;;8.11;63.86;99515.63;10289566;28;20499;-53
2021/05/06 07:04:28;;;;;;;3.60;3.00;;;;;;;8.31;63.38;99526.41;10288973;28;20058;-55
2021/05/06 07:09:29;;;;;;;6.43;3.17;;;;;;;8.48;63.24;99523.25;10282237;28;20055;-53
2021/05/06 07:14:35;;;;;;;5.30;2.78;;;;;;;8.64;63.00;99508.69;10281101;28;20412;-54
2021/05/06 07:19:45;;;;;;;4.75;3.00;;;;;;;8.47;62.67;99484.41;10288982;28;20042;-53
2021/05/06 07:24:46;;;;;;;2.80;2.30;;;;;;;8.73;62.26;99499.09;10286312;28;20050;-54
2021/05/06 07:29:50;;;;;;;3.75;2.65;;;;;;;8.88;63.13;99489.00;10295514;28;20469;-53
2021/05/06 07:34:53;;;;;;;4.30;2.55;;;;;;;8.90;62.81;99474.59;10281781;28;20113;-53
2021/05/06 07:39:55;;;;;;;3.25;2.67;;;;;;;8.83;62.43;99495.53;10280976;28;20623;-55
2021/05/06 07:44:59;;;;;;;6.60;3.03;;;;;;;8.85;63.52;99477.66;10297121;28;20050;-53
2021/05/06 07:50:03;;;;;;;3.83;2.50;;;;;;;8.97;62.60;99480.25;10302943;28;20105;-53
2021/05/06 07:55:11;;;;;;;5.63;3.08;;;;;;;9.07;62.21;99483.78;10285485;28;20050;-53
2021/05/06 08:00:18;;;;;;;4.25;2.50;;;;;;;8.54;62.83;99428.19;10284740;28;20464;-54
2021/05/06 08:05:19;;;;;;;5.85;3.47;;;;;;;8.75;63.82;99487.41;10288626;28;20105;-54
2021/05/06 08:10:23;;;;;;;3.83;2.65;;;;;;;8.95;62.84;99479.53;10282305;28;20049;-53
2021/05/06 08:15:25;;;;;;;6.43;3.65;;;;;;;8.83;64.19;99474.31;10287832;28;20515;-54
2021/05/06 08:20:26;;;;;;;5.20;2.92;;;;;;;8.91;63.14;99480.78;10289100;28;20184;-53
2021/05/06 08:25:27;;;;;;;3.95;3.03;;;;;;;8.96;63.76;99483.84;10280605;28;20514;-54
2021/05/06 08:30:28;;;;;;;5.30;3.20;;;;;;;8.95;64.04;99472.41;10279890;28;21071;-54
2021/05/06 08:35:29;;;;;;;3.03;2.35;;;;;;;9.12;62.44;99473.59;10283119;28;20065;-54
2021/05/06 08:40:30;;;;;;;4.75;2.55;;;;;;;9.34;61.15;99483.19;10276866;28;20078;-54
2021/05/06 08:45:45;;;;;;;4.18;2.60;;;;;;;9.54;60.64;99489.41;10283365;28;21691;-55
2021/05/06 08:50:47;;;;;;;4.82;3.10;;;;;;;9.37;61.74;99480.28;10282496;28;20155;-55
2021/05/06 08:55:49;;;;;;;4.30;3.90;;;;;;;9.60;60.42;99487.19;10279843;28;20518;-55
2021/05/06 09:00:50;;;;;;;3.53;2.95;;;;;;;9.70;59.99;99488.06;10289698;28;20074;-54
2021/05/06 09:06:29;;;;;;;4.70;3.25;;;;;;;9.33;60.85;99478.84;10288519;28;20549;-54
2021/05/06 09:11:37;;;;;;;5.05;3.40;;;;;;;9.37;61.12;99476.78;10241517;28;20074;-54
2021/05/06 09:16:40;;;;;;;3.00;2.70;;;;;;;9.20;61.10;99455.19;10280246;28;20093;-54
2021/05/06 09:21:45;;;;;;;2.80;2.37;;;;;;;9.32;61.23;99473.66;10289373;28;20042;-54
2021/05/06 09:26:46;;;;;;;6.20;3.00;;;;;;;9.40;61.24;99473.00;10289906;28;20640;-54
2021/05/06 09:31:47;;;;;;;4.03;2.50;;;;;;;9.60;60.81;99476.56;10288494;28;20042;-54
2021/05/06 09:36:48;;;;;;;4.30;3.10;;;;;;;9.72;60.58;99451.53;10279960;28;20042;-55
2021/05/06 09:42:03;;;;;;;5.53;3.47;;;;;;;10.08;59.46;99462.50;10277597;28;20058;-58
2021/05/06 09:47:15;;;;;;;4.90;2.90;;;;;;;10.19;58.98;99461.50;10286958;28;20054;-56
2021/05/06 09:52:17;;;;;;;5.05;3.55;;;;;;;10.46;58.51;99457.31;10287569;28;20046;-56
2021/05/06 09:57:29;;;;;;;4.78;4.28;;;;;;;11.04;56.81;99435.88;10284675;28;20110;-55
2021/05/06 10:02:33;;;;;;;4.78;3.40;;;;;;;12.58;52.90;99430.59;10284538;28;20058;-55
2021/05/06 10:07:34;;;;;;;3.60;2.93;;;;;;;13.41;49.16;99440.72;10298621;28;20050;-56
2021/05/06 10:12:38;;;;;;;4.60;2.83;;;;;;;13.61;48.74;99432.41;10292667;28;20393;-55
2021/05/06 10:17:39;;;;;;;5.93;3.10;;;;;;;14.22;46.48;99429.50;10307984;23;20163;-61
2021/05/06 10:22:42;;;;;;;4.72;3.13;;;;;;;14.44;45.39;99418.13;10278768;28;20760;-61
2021/05/06 10:27:43;;;;;;;4.15;2.95;;;;;;;13.66;47.04;99414.06;10269787;28;20062;-62
2021/05/06 10:32:45;;;;;;;4.53;2.67;;;;;;;13.54;46.77;99408.19;10271507;28;20130;-62
2021/05/06 10:37:55;;;;;;;5.90;3.47;;;;;;;13.66;46.39;99398.00;10265453;28;20587;-61
2021/05/06 10:43:16;;;;;;;4.63;2.78;;;;;;;13.77;47.50;99391.50;10267027;28;20098;-62
2021/05/06 10:48:17;;;;;;;4.05;2.80;;;;;;;13.42;46.31;99380.91;10262856;28;20151;-64
2021/05/06 10:53:29;;;;;;;4.45;2.72;;;;;;;13.16;46.55;99369.44;10253540;28;20106;-62
2021/05/06 10:58:33;;;;;;;2.70;2.50;;;;;;;12.81;46.68;99355.28;10275859;28;20046;-62
2021/05/06 11:03:36;;;;;;;3.13;2.63;;;;;;;12.93;47.42;99351.31;10276266;28;20572;-62
2021/05/06 11:08:37;;;;;;;5.05;2.78;;;;;;;12.83;47.13;99342.59;10266465;28;20058;-62
2021/05/06 11:14:07;;;;;;;3.15;2.58;;;;;;;13.39;47.03;99335.81;10262079;28;20219;-61
2021/05/06 11:19:09;;;;;;;3.92;2.67;;;;;;;13.76;45.21;99329.13;10272133;28;20055;-61
2021/05/06 11:24:17;;;;;;;3.83;2.60;;;;;;;13.99;44.04;99332.97;10263531;28;20094;-64
2021/05/06 11:29:29;;;;;;;4.00;2.55;;;;;;;14.25;43.68;99316.75;10270875;28;20049;-60
2021/05/06 11:34:35;;;;;;;4.05;2.80;;;;;;;14.46;43.34;99317.03;10263976;28;20140;-61
2021/05/06 11:39:55;;;;;;;4.05;2.33;;;;;;;14.39;43.94;99305.31;10267291;28;20046;-62
2021/05/06 11:45:11;;;;;;;3.30;2.17;;;;;;;14.01;42.55;99293.53;10260039;28;20067;-60
2021/05/06 11:50:18;;;;;;;3.67;2.33;;;;;;;13.34;45.23;99291.84;10253383;28;20044;-61
2021/05/06 11:55:39;;;;;;;3.53;2.42;;;;;;;12.85;47.88;99268.47;10252184;28;20067;-61
2021/05/06 12:00:41;;;;;;;2.75;2.50;;;;;;;12.61;48.20;99279.91;10255561;28;25806;-60
2021/05/06 12:05:59;;;;;;;3.83;3.42;;;;;;;12.36;48.94;99272.63;10265043;28;20240;-61
2021/05/06 12:11:03;;;;;;;2.92;2.30;;;;;;;11.99;49.88;99271.09;10256410;28;20051;-60
2021/05/06 12:16:14;;;;;;;2.37;2.17;;;;;;;11.78;49.80;99257.25;10265598;28;20450;-60
2021/05/06 12:21:15;;;;;;;5.43;3.65;;;;;;;11.68;50.12;99247.50;10262024;28;20070;-60
2021/05/06 12:26:17;;;;;;;2.75;2.28;;;;;;;11.71;49.76;99234.84;10269412;28;20109;-61
2021/05/06 12:31:18;;;;;;;3.55;2.65;;;;;;;11.56;49.92;99232.75;10266895;28;20059;-60
2021/05/06 12:36:20;;;;;;;4.22;2.60;;;;;;;11.63;50.60;99212.50;10267975;28;20141;-60
2021/05/06 12:41:21;;;;;;;8.05;4.43;;;;;;;11.54;50.31;99216.06;10263630;28;20062;-60
2021/05/06 12:46:26;;;;;;;4.55;3.80;;;;;;;11.45;50.72;99225.00;10271412;28;20727;-62
2021/05/06 12:51:32;;;;;;;5.88;3.90;;;;;;;11.56;50.65;99214.09;10265913;28;20428;-61
2021/05/06 12:56:42;;;;;;;3.40;2.50;;;;;;;11.69;50.89;99213.69;10258319;28;20067;-61
2021/05/06 13:01:43;;;;;;;3.30;3.00;;;;;;;11.54;50.16;99194.75;10257322;28;20789;-61
2021/05/06 13:06:44;;;;;;;3.33;2.88;;;;;;;11.41;50.57;99196.97;10260856;28;20129;-61
2021/05/06 13:11:45;;;;;;;3.40;3.08;;;;;;;11.55;50.55;99174.28;10269096;28;20069;-62
2021/05/06 13:16:48;;;;;;;5.07;3.28;;;;;;;11.61;51.13;99176.31;10272176;28;20051;-61
2021/05/06 13:21:51;;;;;;;3.65;3.05;;;;;;;11.53;51.55;99161.13;10266514;28;20062;-61
2021/05/06 13:26:54;;;;;;;3.38;3.08;;;;;;;11.28;52.29;99166.25;10281896;28;20427;-65
2021/05/06 13:32:04;;;;;;;4.43;2.83;;;;;;;11.32;52.52;99151.63;10276626;28;20058;-62
2021/05/06 13:37:05;;;;;;;4.65;3.10;;;;;;;11.45;52.08;99158.38;10274160;28;20050;-61
2021/05/06 13:42:06;;;;;;;3.72;3.13;;;;;;;11.33;53.20;99155.13;10273337;28;20113;-61
2021/05/06 13:47:07;;;;;;;5.05;3.00;;;;;;;11.37;53.49;99150.34;10273981;28;20050;-62
2021/05/06 13:52:08;;;;;;;5.57;3.67;;;;;;;11.37;55.65;99129.84;10276894;28;20185;-61
2021/05/06 13:57:09;;;;;;;3.58;3.08;;;;;;;11.22;57.05;99129.59;10274143;28;20050;-60
2021/05/06 14:02:10;;;;;;;3.75;3.45;;;;;;;11.23;58.13;99125.09;10267197;28;20142;-62
2021/05/06 14:07:14;;;;;;;6.10;4.80;;;;;;;11.23;58.84;99120.63;10268348;28;21154;-61
2021/05/06 14:12:15;;;;;;;5.75;4.38;;;;;;;11.31;59.33;99112.66;10269059;28;20093;-61
2021/05/06 14:17:17;;;;;;;5.88;3.45;;;;;;;11.22;59.39;99102.94;10273926;28;20042;-62
2021/05/06 14:22:18;;;;;;;4.10;3.67;;;;;;;11.11;60.51;99101.38;10271976;28;20061;-62
2021/05/06 14:27:20;;;;;;;4.75;4.35;;;;;;;11.17;63.07;99094.59;10295259;28;20120;-61
2021/05/06 14:32:21;;;;;;;5.10;4.60;;;;;;;11.12;64.17;99094.22;10283523;28;20109;-61
2021/05/06 14:37:23;;;;;;;6.15;4.22;;;;;;;11.18;61.75;99068.78;10273814;28;20054;-60
2021/05/06 14:42:24;;;;;;;5.68;3.88;;;;;;;11.45;62.80;99065.97;10265670;28;20058;-61
2021/05/06 14:47:25;;;;;;;4.30;3.80;;;;;;;11.38;62.54;99064.06;10274088;28;20415;-61
2021/05/06 14:52:27;;;;;;;4.60;3.35;;;;;;;11.43;63.13;99061.78;10269705;28;20560;-61
2021/05/06 14:57:28;;;;;;;4.10;3.45;;;;;;;11.27;61.08;99058.03;10266917;28;20059;-61
2021/05/06 15:02:29;;;;;;;3.67;3.28;;;;;;;10.96;62.32;99045.19;10265120;28;20084;-61
2021/05/06 15:07:30;;;;;;;4.30;3.53;;;;;;;10.67;63.76;99044.63;10264500;28;20050;-60
2021/05/06 15:12:33;;;;;;;4.60;3.85;;;;;;;10.49;62.24;99050.78;10275775;28;20051;-61
2021/05/06 15:17:34;;;;;;;3.95;3.28;;;;;;;10.25;64.26;99043.38;10276505;28;20053;-62
2021/05/06 15:22:36;;;;;;;4.30;3.53;;;;;;;10.22;65.07;99012.63;10278472;28;20476;-61
2021/05/06 15:27:53;;;;;;;3.97;3.38;;;;;;;10.34;66.48;99017.72;10268226;28;20043;-63
2021/05/06 15:32:54;;;;;;;4.60;3.70;;;;;;;10.41;67.46;99016.13;10273574;28;20051;-61
2021/05/06 15:37:55;;;;;;;4.28;3.88;;;;;;;10.42;67.51;99005.34;10265495;28;20053;-61
2021/05/06 15:42:56;;;;;;;5.70;4.93;;;;;;;10.35;66.95;98998.13;10262773;28;20062;-61
2021/05/06 15:47:57;;;;;;;5.75;4.40;;;;;;;10.34;67.57;99001.75;10259392;28;20444;-61
2021/05/06 15:53:00;;;;;;;8.13;5.32;;;;;;;10.30;68.60;98987.06;10262303;28;20500;-62
2021/05/06 15:58:04;;;;;;;4.93;4.43;;;;;;;10.28;68.88;98987.22;10268165;28;20077;-62
2021/05/06 16:03:09;;;;;;;5.93;4.47;;;;;;;10.32;69.29;98993.91;10262376;28;20058;-60
2021/05/06 16:08:10;;;;;;;5.30;4.30;;;;;;;10.29;69.46;99001.38;10269791;28;20492;-62
2021/05/06 16:13:12;;;;;;;5.35;4.82;;;;;;;10.23;71.17;98968.22;10273845;28;20046;-61
2021/05/06 16:18:19;;;;;;;6.47;5.85;;;;;;;10.26;72.15;98984.72;10276953;23;20137;-56
2021/05/06 16:23:23;;;;;;;7.88;6.75;;;;;;;10.17;73.33;98951.06;10256307;28;20120;-57
2021/05/06 16:28:24;;;;;;;7.53;6.85;;;;;;;10.21;73.25;98960.41;10253678;28;20499;-56
2021/05/06 16:33:26;;;;;;;7.18;6.57;;;;;;;10.12;73.62;98960.47;10254763;28;20054;-56
2021/05/06 16:38:29;;;;;;;8.88;6.80;;;;;;;9.97;74.39;98912.31;10255708;28;20460;-55
2021/05/06 16:43:37;;;;;;;6.28;4.90;;;;;;;10.00;72.47;98920.84;10253428;28;20066;-55
2021/05/06 16:48:38;;;;;;;5.35;3.50;;;;;;;10.03;71.94;98949.78;10246093;28;20197;-57
2021/05/06 16:53:39;;;;;;;4.80;4.35;;;;;;;9.95;72.50;98933.72;10236283;28;20511;-56
2021/05/06 16:58:40;;;;;;;4.88;4.30;;;;;;;9.91;72.92;98927.06;10240501;28;20515;-56
2021/05/06 17:03:41;;;;;;;20.77;18.95;;;;;;;9.91;72.96;98916.44;10244440;28;20118;-56
2021/05/06 17:08:41;;;;;;;8.18;7.38;;;;;;;10.02;72.82;98915.38;10247517;28;20423;-56
2021/05/06 17:13:42;;;;;;;5.55;5.15;;;;;;;10.03;73.18;98935.66;10254974;28;20055;-57
2021/05/06 17:18:45;;;;;;;4.18;3.78;;;;;;;10.09;73.50;98943.84;10251428;28;20055;-59
2021/05/06 17:23:48;;;;;;;4.32;3.65;;;;;;;10.07;72.38;98944.97;10257051;28;20391;-56
2021/05/06 17:28:49;;;;;;;5.32;2.85;;;;;;;10.04;72.08;98922.22;10256764;28;20559;-58
2021/05/06 17:33:50;;;;;;;5.03;3.75;;;;;;;10.21;73.27;98915.19;10257187;28;20102;-52
2021/05/06 17:38:57;;;;;;;5.40;4.93;;;;;;;10.23;73.16;98923.84;10251871;28;20134;-51
2021/05/06 17:43:59;;;;;;;3.25;2.95;;;;;;;10.31;73.38;98948.84;10251189;28;20106;-52
2021/05/06 17:49:00;;;;;;;24.00;22.10;;;;;;;10.17;73.30;98927.13;10247552;28;20090;-58
2021/05/06 17:54:01;;;;;;;3.45;2.97;;;;;;;10.14;73.61;98922.09;10257422;28;20046;-57
2021/05/06 17:59:02;;;;;;;5.10;4.60;;;;;;;10.09;74.72;98919.91;10252455;28;20180;-55
2021/05/06 18:04:04;;;;;;;11.75;10.55;;;;;;;10.02;74.47;98934.81;10245996;28;20054;-55
2021/05/06 18:09:06;;;;;;;3.05;2.60;;;;;;;9.97;74.60;98937.09;10240385;28;20059;-56
2021/05/06 18:14:07;;;;;;;5.72;4.15;;;;;;;9.93;74.53;98930.41;10239406;28;20720;-55
2021/05/06 18:19:08;;;;;;;6.22;5.63;;;;;;;9.93;75.41;98925.09;10236773;28;20050;-56
2021/05/06 18:24:10;;;;;;;6.85;4.85;;;;;;;10.00;76.59;98935.97;10227818;28;20508;-58
2021/05/06 18:29:11;;;;;;;5.15;4.68;;;;;;;10.01;76.80;98940.28;10224568;28;20115;-56
2021/05/06 18:34:12;;;;;;;5.95;5.35;;;;;;;9.99;78.36;98927.13;10228176;28;20054;-57
2021/05/06 18:39:14;;;;;;;6.43;5.88;;;;;;;9.99;78.28;98921.00;10232086;28;20492;-57
2021/05/06 18:44:16;;;;;;;5.95;5.32;;;;;;;9.93;78.20;98918.94;10234336;28;20358;-56
2021/05/06 18:49:17;;;;;;;6.43;5.80;;;;;;;9.96;78.58;98929.28;10204406;28;20059;-56
2021/05/06 18:54:18;;;;;;;6.68;6.07;;;;;;;9.98;78.50;98924.63;10211238;28;20230;-57
2021/05/06 18:59:19;;;;;;;7.90;6.90;;;;;;;9.93;77.96;98919.78;10202591;28;20093;-61
2021/05/06 19:04:20;;;;;;;8.77;7.30;;;;;;;10.09;77.53;98945.69;10198035;28;20500;-58
2021/05/06 19:09:22;;;;;;;6.30;5.80;;;;;;;10.01;78.15;98950.91;10212792;28;20055;-56
2021/05/06 19:14:25;;;;;;;7.43;6.72;;;;;;;9.72;78.83;98954.59;10216814;28;20524;-59
2021/05/06 19:19:26;;;;;;;7.18;6.40;;;;;;;9.75;77.91;98949.00;10212289;28;20079;-57
2021/05/06 19:24:27;;;;;;;7.28;6.57;;;;;;;9.91;77.82;98978.41;10204855;28;20051;-57
2021/05/06 19:29:28;;;;;;;5.95;5.45;;;;;;;9.94;77.26;98987.03;10197383;28;20058;-56
2021/05/06 19:34:29;;;;;;;6.70;6.20;;;;;;;9.89;77.29;98995.47;10202111;28;20061;-57
2021/05/06 19:39:31;;;;;;;6.32;5.80;;;;;;;9.94;77.28;99010.97;10196634;28;20058;-60
2021/05/06 19:44:43;;;;;;;6.22;5.63;;;;;;;9.91;76.77;99004.16;10185554;28;20362;-58
2021/05/06 19:49:44;;;;;;;7.15;6.38;;;;;;;9.80;77.03;99004.34;10184271;28;20085;-55
2021/05/06 19:54:45;;;;;;;7.18;6.47;;;;;;;9.84;76.44;99014.53;10193070;28;20106;-58
2021/05/06 19:59:46;;;;;;;7.18;6.47;;;;;;;9.84;76.60;99017.19;10203772;28;20047;-58
2021/05/06 20:04:47;;;;;;;6.93;6.43;;;;;;;9.70;77.01;99023.03;10191799;28;20121;-56
2021/05/06 20:09:48;;;;;;;8.73;7.40;;;;;;;9.71;77.19;99036.16;10195961;28;20523;-56
2021/05/06 20:14:49;;;;;;;9.15;7.78;;;;;;;9.78;76.96;99060.31;10201320;28;22194;-59
2021/05/06 20:19:57;;;;;;;7.68;7.03;;;;;;;9.66;76.78;99054.34;10187982;28;20059;-56
2021/05/06 20:24:58;;;;;;;8.88;7.95;;;;;;;9.68;76.62;99063.03;10184669;28;20077;-58
2021/05/06 20:29:59;;;;;;;8.10;7.40;;;;;;;9.65;76.30;99063.31;10187840;28;20082;-58
2021/05/06 20:35:00;;;;;;;7.13;6.50;;;;;;;9.55;75.48;99066.00;10189152;28;20055;-58
2021/05/06 20:40:04;;;;;;;8.63;7.72;;;;;;;9.40;76.97;99063.94;10188271;28;20143;-57
2021/05/06 20:45:05;;;;;;;7.33;6.57;;;;;;;9.17;77.67;99053.69;10188468;28;20243;-58
2021/05/06 20:50:07;;;;;;;8.38;7.18;;;;;;;9.43;76.86;99071.63;10186609;28;20141;-58
2021/05/06 20:55:09;;;;;;;6.88;6.22;;;;;;;9.48;75.72;99067.56;10185842;28;20130;-56
2021/05/06 21:00:10;;;;;;;6.65;6.13;;;;;;;9.50;75.26;99072.72;10187029;28;20073;-56
2021/05/06 21:05:12;;;;;;;7.53;6.82;;;;;;;9.44;75.83;99079.47;10186403;28;20697;-58
2021/05/06 21:10:13;;;;;;;8.48;7.68;;;;;;;8.88;77.90;99067.84;10209893;28;20142;-64
2021/05/06 21:15:15;;;;;;;7.85;7.15;;;;;;;9.00;77.05;99084.47;10191404;28;20059;-56
2021/05/06 21:20:16;;;;;;;7.95;7.18;;;;;;;9.08;76.47;99078.44;10197317;28;20051;-59
2021/05/06 21:25:17;;;;;;;6.88;5.85;;;;;;;9.14;75.81;99086.69;10233934;28;20050;-58
2021/05/06 21:30:22;;;;;;;7.32;6.60;;;;;;;9.26;75.75;99108.56;10235099;28;20483;-56
2021/05/06 21:35:23;;;;;;;7.72;7.03;;;;;;;8.92;76.24;99114.38;10231010;28;20094;-55
2021/05/06 21:40:24;;;;;;;7.55;6.82;;;;;;;9.18;76.67;99149.13;10236839;28;20067;-57
2021/05/06 21:45:26;;;;;;;8.43;7.63;;;;;;;9.27;76.74;99151.91;10240629;28;20047;-55
2021/05/06 21:50:27;;;;;;;7.40;6.68;;;;;;;9.26;76.11;99158.19;10247510;28;20455;-57
2021/05/06 21:55:29;;;;;;;6.88;6.28;;;;;;;9.34;75.47;99163.66;10253265;28;20059;-58
2021/05/06 22:00:37;;;;;;;6.68;6.07;;;;;;;9.18;76.13;99186.28;10250722;28;20079;-56
2021/05/06 22:05:38;;;;;;;6.00;5.40;;;;;;;9.27;75.19;99189.09;10251377;28;20530;-57
2021/05/06 22:10:40;;;;;;;6.15;5.65;;;;;;;9.28;75.42;99169.53;10246211;28;22045;-57
2021/05/06 22:15:43;;;;;;;7.25;6.63;;;;;;;9.32;74.54;99181.53;10270873;23;20454;-62
2021/05/06 22:20:49;;;;;;;7.40;6.80;;;;;;;9.32;75.05;99174.44;10288765;28;20086;-61
2021/05/06 22:25:50;;;;;;;6.47;5.88;;;;;;;9.37;74.83;99182.78;10288557;28;20153;-59
2021/05/06 22:30:51;;;;;;;5.75;5.25;;;;;;;9.30;74.69;99188.81;10290971;28;20046;-62
2021/05/06 22:35:53;;;;;;;6.13;5.32;;;;;;;9.40;74.07;99196.75;10294522;28;20046;-62
2021/05/06 22:40:54;;;;;;;5.90;5.40;;;;;;;9.43;74.71;99188.50;10290141;28;24497;-62
2021/05/06 22:45:55;;;;;;;5.95;5.18;;;;;;;9.43;74.07;99189.34;10278798;28;20444;-61
2021/05/06 22:50:56;;;;;;;5.93;5.43;;;;;;;9.42;73.37;99179.69;10296266;28;20054;-62
2021/05/06 22:55:57;;;;;;;4.72;4.32;;;;;;;9.25;73.73;99196.34;10290542;28;20112;-61
2021/05/06 23:00:59;;;;;;;4.63;4.22;;;;;;;9.24;73.93;99211.44;10289150;28;20451;-61
2021/05/06 23:06:00;;;;;;;5.47;4.25;;;;;;;9.17;73.31;99211.19;10290933;28;20050;-60
2021/05/06 23:11:02;;;;;;;4.80;4.40;;;;;;;9.18;72.12;99218.16;10288803;28;20050;-62
2021/05/06 23:16:03;;;;;;;4.18;3.78;;;;;;;9.15;73.80;99231.72;10279380;28;20640;-63
2021/05/06 23:21:04;;;;;;;3.70;3.40;;;;;;;9.14;72.34;99230.06;10284262;28;20121;-61
2021/05/06 23:26:09;;;;;;;5.00;3.70;;;;;;;8.94;73.30;99231.00;10279172;28;20053;-63
2021/05/06 23:31:10;;;;;;;4.30;3.67;;;;;;;8.98;71.91;99237.72;10283461;28;20572;-61
2021/05/06 23:36:11;;;;;;;3.63;3.35;;;;;;;9.07;71.75;99239.56;10284652;28;20050;-61
2021/05/06 23:41:12;;;;;;;5.03;4.50;;;;;;;8.88;71.78;99247.50;10287036;28;20411;-61
2021/05/06 23:46:13;;;;;;;4.38;4.05;;;;;;;8.75;72.74;99258.34;10280882;28;20054;-62
2021/05/06 23:51:14;;;;;;;5.03;4.63;;;;;;;8.91;72.88;99253.34;10282534;28;20054;-60
2021/05/06 23:56:15;;;;;;;5.15;4.65;;;;;;;8.88;72.26;99250.97;10290382;28;20050;-62
